Saint George, GA (31562)

5:41 PM EDT on August 03, 2015 (GMT -0400)
Two Forks Ranch - St Mary's River | | Change Station
CLOSE
Current Station
Personal Weather Station
Location: Hilliard, FL
Elevation: 66 ft
Nearby Weather Stations

Elev 66 ft 30.52 °N, 82.01 °W | Updated 11 minutes ago

Overcast
Overcast
87.8 °F
Feels Like 112 °F
N
2.2
Wind Variable Wind from WNW

Today
High -- | Low -- °F
--% Chance of Precip.
Yesterday
High -- | Low -- °F
Precip. -- in
6:47 AM 8:20 PM
Waning Gibbous, 84% visible
Pressure 29.85 in
Visibility 10.0 miles
Clouds Few 800 ft
Mostly Cloudy 1500 ft
Mostly Cloudy 4200 ft
Mostly Cloudy 25000 ft
Heat Index 112 °F
Dew Point 84 °F
Humidity 90%
Rainfall 0.10 in
Snow Depth Not available.
UV 3 out of 12
Pollen 2.50 out of 12
Air Quality Not available.
Flu Activity Not available.
SPECI KJAX 032107Z 25005KT 10SM TS FEW008 BKN015CB BKN042 BKN250 28/26 A2985 RMK AO2 TSB07 OCNL LTGIC VC E TS VC E MOV NE T02780256

More Conditions Fewer Conditions

Pressure 29.85 in
Visibility 10.0 miles
Clouds Few 800 ft
Mostly Cloudy 1500 ft
Mostly Cloudy 4200 ft
Mostly Cloudy 25000 ft
Heat Index 112 °F
Dew Point 84 °F
Humidity 90%
Rainfall 0.10 in
Snow Depth Not available.
UV 3 out of 12
Pollen 2.50 out of 12
Air Quality Not available.
Flu Activity Not available.
SPECI KJAX 032107Z 25005KT 10SM TS FEW008 BKN015CB BKN042 BKN250 28/26 A2985 RMK AO2 TSB07 OCNL LTGIC VC E TS VC E MOV NE T02780256

More Conditions Fewer Conditions

10-Day Weather Forecast

×

Almanac

Astronomy

Aug. 03, 2015 Rise Set
Actual Time
Civil Twilight
Nautical Twilight
Astronomical Twilight
Moon
Length of Visible Light
Length of Day
Tomorrow will be .
, % of the Moon is Illuminated

Today's Extremes

State Highs State Lows

Community

WunderPhotos

Upload Photos

1,843,770 photos uploaded!

WunderBlogs® & News

Nearby

Air Quality

  Air Quality AQ Index Pollutant
Not available.

Snow Depth

Station Depth Elevation

Earthquake Activity

City Distance Mag. Time & Date
Minimum magnitude displayed is 2.5.

Coastal Water Temperatures

Place Temperature

Stations

Nearby Weather Stations

Station Location Temp. Windchill Dew Point Humidity Wind Precip. Elev Updated Type